createdAt,value
2022-12-08T00:02:44.513Z,1.55
2022-12-08T00:08:06.279Z,1.36
2022-12-08T00:13:10.876Z,1.50
2022-12-08T00:18:16.816Z,1.32
2022-12-08T00:23:20.595Z,1.42
2022-12-08T00:28:24.129Z,1.22
2022-12-08T00:33:30.094Z,1.51
2022-12-08T00:38:33.486Z,1.65
2022-12-08T00:43:36.935Z,1.50
2022-12-08T00:48:41.801Z,1.67
2022-12-08T00:53:45.223Z,1.74
2022-12-08T00:58:48.705Z,1.67
2022-12-08T01:03:54.178Z,1.77
2022-12-08T01:08:57.688Z,1.80
2022-12-08T01:14:01.292Z,1.60
2022-12-08T01:19:06.187Z,1.64
2022-12-08T01:24:12.203Z,1.62
2022-12-08T01:29:16.352Z,1.52
2022-12-08T01:34:21.089Z,1.54
2022-12-08T01:39:24.514Z,1.59
2022-12-08T01:44:58.396Z,1.77
2022-12-08T01:50:04.200Z,1.42
2022-12-08T01:55:11.394Z,1.57
2022-12-08T02:00:17.575Z,1.72
2022-12-08T02:05:26.913Z,1.59
2022-12-08T02:10:33.830Z,1.52
2022-12-08T02:15:44.389Z,1.82
2022-12-08T02:20:57.254Z,1.94
2022-12-08T02:26:33.929Z,1.86
2022-12-08T02:31:55.386Z,1.94
2022-12-08T02:37:09.119Z,2.07
2022-12-08T02:42:22.106Z,1.76
2022-12-08T02:47:28.660Z,1.80
2022-12-08T02:52:44.948Z,1.86
2022-12-08T02:58:19.650Z,2.07
2022-12-08T03:03:33.015Z,2.09
2022-12-08T03:08:50.302Z,2.07
2022-12-08T03:13:57.215Z,2.25
2022-12-08T03:19:06.683Z,2.33
2022-12-08T03:24:12.942Z,2.03
2022-12-08T03:29:16.767Z,2.07
2022-12-08T03:34:22.961Z,2.11
2022-12-08T03:39:27.894Z,2.04
2022-12-08T03:44:31.426Z,2.07
2022-12-08T03:49:34.969Z,1.99
2022-12-08T03:54:39.853Z,2.03
2022-12-08T03:59:43.372Z,1.93
2022-12-08T04:04:46.963Z,1.92
2022-12-08T04:09:51.955Z,2.11
2022-12-08T04:14:55.612Z,1.92
2022-12-08T04:19:59.258Z,1.94
2022-12-08T04:25:04.201Z,1.79
2022-12-08T04:30:09.174Z,1.81
2022-12-08T04:35:12.715Z,1.88
2022-12-08T04:40:17.635Z,1.72
2022-12-08T04:45:21.349Z,1.83
2022-12-08T04:50:25.202Z,1.74
2022-12-08T04:55:30.014Z,1.77
2022-12-08T05:00:33.442Z,1.86
2022-12-08T05:05:38.014Z,1.68
2022-12-08T05:10:43.596Z,1.77
2022-12-08T05:15:47.434Z,1.77
2022-12-08T05:20:51.317Z,1.77
2022-12-08T05:25:56.630Z,1.77
2022-12-08T05:31:00.920Z,1.80
2022-12-08T05:36:04.818Z,1.75
2022-12-08T05:41:11.830Z,1.71
2022-12-08T05:46:16.090Z,1.75
2022-12-08T05:51:21.560Z,1.72
2022-12-08T05:56:26.533Z,1.86
2022-12-08T06:01:31.933Z,1.97
2022-12-08T06:06:36.710Z,1.90
2022-12-08T06:11:41.620Z,1.80
2022-12-08T06:16:45.154Z,2.01
2022-12-08T06:21:48.653Z,1.79
2022-12-08T06:26:53.563Z,1.99
2022-12-08T06:31:57.242Z,1.91
2022-12-08T06:37:00.827Z,1.89
2022-12-08T06:42:23.204Z,1.74
2022-12-08T06:47:26.877Z,1.93
2022-12-08T06:52:30.513Z,1.92
2022-12-08T06:57:35.560Z,2.06
2022-12-08T07:02:39.461Z,2.19
2022-12-08T07:07:43.187Z,1.81
2022-12-08T07:12:48.220Z,2.04
2022-12-08T07:17:57.908Z,1.96
2022-12-08T07:23:03.359Z,1.77
2022-12-08T07:28:12.525Z,2.04
2022-12-08T07:33:16.202Z,1.85
2022-12-08T07:38:20.197Z,2.01
2022-12-08T07:43:25.347Z,2.02
2022-12-08T07:48:29.244Z,1.97
2022-12-08T07:53:33.523Z,2.06
2022-12-08T07:58:38.756Z,2.36
2022-12-08T08:03:42.454Z,2.39
2022-12-08T08:08:46.427Z,2.60
2022-12-08T08:13:51.665Z,2.69
2022-12-08T08:18:55.639Z,2.72
2022-12-08T08:24:00.202Z,2.96
2022-12-08T08:29:05.544Z,3.09
2022-12-08T08:34:09.445Z,3.22
2022-12-08T08:39:13.769Z,3.48
2022-12-08T08:44:19.369Z,3.43
2022-12-08T08:49:22.967Z,3.49
2022-12-08T08:54:26.955Z,3.23
2022-12-08T08:59:32.672Z,3.39
2022-12-08T09:04:36.336Z,3.50
2022-12-08T09:09:40.603Z,3.56
2022-12-08T09:14:45.925Z,3.66
2022-12-08T09:19:49.494Z,3.50
2022-12-08T09:24:53.615Z,3.48
2022-12-08T09:29:58.823Z,3.59
2022-12-08T09:35:03.134Z,3.37
2022-12-08T09:40:08.848Z,3.71
2022-12-08T09:45:17.220Z,3.66
2022-12-08T09:50:30.439Z,3.67
2022-12-08T09:55:42.692Z,3.65
2022-12-08T10:00:47.648Z,3.91
2022-12-08T10:05:58.806Z,3.89
2022-12-08T10:11:11.007Z,4.06
2022-12-08T10:16:29.963Z,4.34
2022-12-08T10:21:34.155Z,4.47
2022-12-08T10:26:37.781Z,4.42
2022-12-08T10:31:43.366Z,4.42
2022-12-08T10:36:52.340Z,4.22
2022-12-08T10:42:02.078Z,4.44
2022-12-08T10:47:14.782Z,4.61
2022-12-08T10:52:24.133Z,4.73
2022-12-08T10:57:27.854Z,4.65
2022-12-08T11:02:32.915Z,4.76
2022-12-08T11:07:36.591Z,4.57
2022-12-08T11:12:40.366Z,4.70
2022-12-08T11:17:46.441Z,4.57
2022-12-08T11:22:54.478Z,4.73
2022-12-08T11:27:59.636Z,4.59
2022-12-08T11:33:15.036Z,4.60
2022-12-08T11:38:22.763Z,4.10
2022-12-08T11:43:35.722Z,4.11
2022-12-08T11:48:47.180Z,4.26
2022-12-08T11:54:13.074Z,4.15
2022-12-08T11:59:29.807Z,4.45
2022-12-08T12:04:40.175Z,4.33
2022-12-08T12:09:57.875Z,4.66
2022-12-08T12:15:45.176Z,4.42
2022-12-08T12:20:54.751Z,4.51
2022-12-08T12:26:01.221Z,4.75
2022-12-08T12:31:09.497Z,4.58
2022-12-08T12:36:15.888Z,4.48
2022-12-08T12:41:25.633Z,4.38
2022-12-08T12:46:54.488Z,4.43
2022-12-08T12:51:59.489Z,4.39
2022-12-08T12:57:21.804Z,4.33
2022-12-08T13:02:27.230Z,4.00
2022-12-08T13:07:35.849Z,4.25
2022-12-08T13:12:39.755Z,4.04
2022-12-08T13:17:47.271Z,3.92
2022-12-08T13:23:04.052Z,4.05
2022-12-08T13:28:20.287Z,3.68
2022-12-08T13:33:27.903Z,3.90
2022-12-08T13:38:37.954Z,3.69
2022-12-08T13:44:20.135Z,3.59
2022-12-08T13:51:23.671Z,3.49
2022-12-08T14:00:16.080Z,3.54
2022-12-08T14:05:35.183Z,3.06
2022-12-08T14:10:58.736Z,3.31
2022-12-08T14:16:02.682Z,3.34
2022-12-08T14:21:20.802Z,3.26
2022-12-08T14:26:27.239Z,3.24
2022-12-08T14:31:31.824Z,3.15
2022-12-08T14:36:36.413Z,3.04
2022-12-08T14:41:41.845Z,2.82
2022-12-08T14:47:08.030Z,3.13
2022-12-08T14:52:13.701Z,3.18
2022-12-08T14:57:19.760Z,3.26
2022-12-08T15:02:29.251Z,3.20
2022-12-08T15:07:38.013Z,3.22
2022-12-08T15:12:58.660Z,3.24
2022-12-08T15:18:12.596Z,3.07
2022-12-08T15:23:23.674Z,2.99
2022-12-08T15:28:30.740Z,3.12
2022-12-08T15:33:34.688Z,3.01
2022-12-08T15:38:39.298Z,2.70
2022-12-08T15:43:44.497Z,2.79
2022-12-08T15:48:50.468Z,2.76
2022-12-08T15:53:57.745Z,2.72
2022-12-08T15:59:03.091Z,2.63
2022-12-08T16:09:34.424Z,2.77
2022-12-08T16:20:07.370Z,2.81
2022-12-08T16:25:21.664Z,2.83
2022-12-08T16:30:27.783Z,2.71
2022-12-08T16:35:32.394Z,2.79
2022-12-08T16:40:57.868Z,2.89
2022-12-08T16:46:04.344Z,2.85
2022-12-08T16:51:10.424Z,2.69
2022-12-08T16:56:18.607Z,2.71
2022-12-08T17:01:24.223Z,2.81
2022-12-08T17:06:29.169Z,2.78
2022-12-08T17:11:39.127Z,2.75
2022-12-08T17:16:46.808Z,2.61
2022-12-08T17:21:50.537Z,2.64
2022-12-08T17:26:54.318Z,2.82
2022-12-08T17:31:59.463Z,2.60
2022-12-08T17:37:03.732Z,2.83
2022-12-08T17:42:07.920Z,2.75
2022-12-08T17:47:13.129Z,2.77
2022-12-08T17:52:17.259Z,2.65
2022-12-08T17:57:20.812Z,2.71
2022-12-08T18:02:25.817Z,2.56
2022-12-08T18:07:29.589Z,2.40
2022-12-08T18:12:33.128Z,2.62
2022-12-08T18:17:38.128Z,2.74
2022-12-08T18:22:42.448Z,2.66
2022-12-08T18:27:46.064Z,2.54
2022-12-08T18:32:57.076Z,2.43
2022-12-08T18:38:01.316Z,2.53
2022-12-08T18:43:05.210Z,2.49
2022-12-08T18:48:10.402Z,2.66
2022-12-08T18:53:14.116Z,2.45
2022-12-08T18:58:18.340Z,2.50
2022-12-08T19:03:24.411Z,2.56
2022-12-08T19:08:31.628Z,2.40
2022-12-08T19:13:35.783Z,2.55
2022-12-08T19:18:41.010Z,2.41
2022-12-08T19:23:45.054Z,2.46
2022-12-08T19:28:52.061Z,2.50
2022-12-08T19:33:58.313Z,2.25
2022-12-08T19:39:19.740Z,2.23
2022-12-08T19:44:42.897Z,2.40
2022-12-08T19:49:48.652Z,2.42
2022-12-08T19:54:53.425Z,2.44
2022-12-08T19:59:57.600Z,2.35
2022-12-08T20:05:03.106Z,2.46
2022-12-08T20:10:09.711Z,2.47
2022-12-08T20:15:14.947Z,2.18
2022-12-08T20:20:20.589Z,2.20
2022-12-08T20:25:24.879Z,2.40
2022-12-08T20:30:28.415Z,2.32
2022-12-08T20:35:33.629Z,2.37
2022-12-08T20:40:37.397Z,2.41
2022-12-08T20:45:41.160Z,2.37
2022-12-08T20:50:46.189Z,2.31
2022-12-08T20:55:50.642Z,2.33
2022-12-08T21:00:54.770Z,2.22
2022-12-08T21:06:00.183Z,2.05
2022-12-08T21:11:04.704Z,1.82
2022-12-08T21:16:12.557Z,1.94
2022-12-08T21:21:18.471Z,1.78
2022-12-08T21:26:26.445Z,1.53
2022-12-08T21:31:32.185Z,1.96
2022-12-08T21:36:38.899Z,1.76
2022-12-08T21:42:01.013Z,1.73
2022-12-08T21:47:06.502Z,1.93
2022-12-08T21:52:12.000Z,1.77
2022-12-08T21:57:15.634Z,1.71
2022-12-08T22:02:22.398Z,1.95
2022-12-08T22:07:28.006Z,1.90
2022-12-08T22:12:31.756Z,2.05
2022-12-08T22:17:38.348Z,2.05
2022-12-08T22:22:44.725Z,1.79
2022-12-08T22:27:48.287Z,1.96
2022-12-08T22:32:51.886Z,1.62
2022-12-08T22:37:57.879Z,1.61
2022-12-08T22:43:01.710Z,1.62
2022-12-08T22:48:05.971Z,1.73
2022-12-08T22:53:11.433Z,1.77
2022-12-08T22:58:15.095Z,1.74
2022-12-08T23:03:18.953Z,1.49
2022-12-08T23:08:24.467Z,1.40
2022-12-08T23:13:28.178Z,1.51
2022-12-08T23:18:31.818Z,1.37
2022-12-08T23:23:37.122Z,1.58
2022-12-08T23:28:40.625Z,1.68
2022-12-08T23:33:44.738Z,1.56
2022-12-08T23:38:50.447Z,1.74
2022-12-08T23:43:54.165Z,1.69
2022-12-08T23:48:58.103Z,1.67
2022-12-08T23:54:03.538Z,1.79
2022-12-08T23:59:07.260Z,1.64
